Lawrence, Kansas
Current Conditions -  °F | °C
As of 6:52 PM on Wednesday 22 Oct 2014 (Local Time) from KLWC Reporting Station
Clear Clear  
Wind Chill: 19°   Ceiling: Unl
Heat Index: 19°   Visibility: 9mi
Dew Point: 13°   Wind: 9mph
Humidity: 68%   Direction: 130°SE
Pressure: 30.08"   Gusts: NA
Location:  38.97°N, 95.24°W
Report Text: KLWC 222352Z AUTO 13008KT 9SM CLR 19/13 A3008 RMK AO2 SLP183 T01940133 10239 20194 55003
Loading
Personal Weather Stations






























Interactive Weather Map
Tropical Storm Tracking
New forecast layout! Learn more

10-Day Weather Forecast

Advertisements
Track Severe Weather on mobile